Currently 44°F in Lake Elsinore, California, USA
44°F
47°F / 44°F
calm
0.00"
Thursday, January 23, 2020 3:11 AM PST

Lake Elsinore, California Weather Summary
Last 36 Hours

Temperature Winds Hourly Humidity Dewpoint
Time Report Norm Report Norm Max Gusts Precip. Rpt. Norm Rpt. Norm Pressure
1Thu 03:11 AM  44.4°F  46°F  calm  1 mph  2 mph  0.00"  84%  78%  40°F  39°F  30.16"
3Thu 03:06 AM  44.3°F  46°F  calm  1 mph  3 mph  ----  84%  77%  40°F  39°F  30.16"
Thu 03:00 AM  44.4°F  46°F  1 mph W  1 mph  3 mph  0.00"  84%  77%  40°F  39°F  30.17"
Thu 02:00 AM  45.0°F  46°F  calm  1 mph  4 mph  0.00"  83%  76%  40°F  39°F  30.18"
Thu 01:00 AM  46.1°F  47°F  calm  1 mph  none  0.00"  83%  75%  41°F  39°F  30.17"
2Thu 12:01 AM  47.3°F  48°F  calm  1 mph  none  ----  82%  73%  42°F  39°F  30.18"
Thu 12:00 AM  47.3°F  48°F  calm  1 mph  none  0.00"  82%  73%  42°F  39°F  30.18"
Wed 11:00 PM  48.5°F  49°F  calm  1 mph  2 mph  0.00"  81%  72%  43°F  40°F  30.18"
Wed 10:00 PM  49.8°F  50°F  calm  1 mph  1 mph  0.00"  79%  69%  43°F  40°F  30.18"
Wed 09:00 PM  51.3°F  52°F  calm  1 mph  3 mph  0.00"  75%  66%  43°F  40°F  30.16"
Wed 08:00 PM  53.6°F  53°F  calm  1 mph  4 mph  0.00"  71%  63%  44°F  41°F  30.16"
Wed 07:00 PM  56.4°F  56°F  calm  2 mph  5 mph  0.00"  67%  59%  45°F  41°F  30.14"
Wed 06:00 PM  58.9°F  58°F  1 mph NE  2 mph  7 mph  0.00"  63%  56%  46°F  42°F  30.13"
Wed 05:00 PM  62.3°F  62°F  3 mph W  2 mph  10 mph  0.00"  56%  50%  46°F  42°F  30.12"
Wed 04:00 PM  67.6°F  66°F  2 mph NE  3 mph  5 mph  0.00"  45%  44%  45°F  42°F  30.11"
Wed 03:00 PM  66.9°F  67°F  2 mph S  3 mph  6 mph  0.00"  47%  41%  45°F  42°F  30.11"
Wed 02:00 PM  65.7°F  68°F  2 mph SE  3 mph  8 mph  0.00"  48%  41%  45°F  42°F  30.12"
Wed 01:00 PM  66.3°F  67°F  5 mph S  3 mph  8 mph  0.00"  49%  41%  46°F  42°F  30.14"
Wed 12:00 PM  63.4°F  66°F  4 mph E  3 mph  8 mph  0.00"  54%  44%  46°F  42°F  30.15"
Wed 11:00 AM  60.3°F  63°F  3 mph SE  2 mph  7 mph  0.00"  59%  49%  45°F  43°F  30.20"
Wed 10:00 AM  58.5°F  59°F  2 mph SW  2 mph  6 mph  0.00"  67%  58%  47°F  44°F  30.22"
Wed 09:00 AM  52.6°F  55°F  calm  1 mph  2 mph  0.00"  83%  68%  47°F  44°F  30.21"
Wed 08:00 AM  47.4°F  48°F  calm  1 mph  3 mph  0.00"  86%  79%  43°F  41°F  30.20"
Wed 07:00 AM  46.5°F  44°F  2 mph W  1 mph  3 mph  0.00"  86%  81%  42°F  38°F  30.19"
Wed 06:00 AM  45.5°F  44°F  calm  1 mph  none  0.00"  86%  81%  41°F  38°F  30.19"
Wed 05:00 AM  45.8°F  44°F  calm  1 mph  3 mph  0.00"  85%  80%  41°F  38°F  30.19"
Wed 04:00 AM  46.4°F  45°F  calm  1 mph  none  0.00"  84%  79%  42°F  38°F  30.19"
Wed 03:00 AM  47.0°F  46°F  calm  1 mph  3 mph  0.00"  84%  77%  42°F  38°F  30.19"
Wed 02:00 AM  47.5°F  46°F  calm  calm  2 mph  0.00"  83%  76%  42°F  39°F  30.20"
Wed 01:00 AM  48.5°F  47°F  2 mph SW  1 mph  2 mph  0.00"  81%  74%  43°F  39°F  30.20"
Wed 12:00 AM  50.2°F  48°F  calm  1 mph  5 mph  0.00"  79%  73%  44°F  39°F  30.20"
Tue 11:00 PM  51.8°F  49°F  calm  1 mph  6 mph  0.00"  76%  71%  44°F  39°F  30.19"
Tue 10:00 PM  53.0°F  50°F  1 mph W  1 mph  3 mph  0.00"  76%  68%  45°F  40°F  30.20"
Tue 09:00 PM  53.7°F  52°F  calm  1 mph  5 mph  0.00"  75%  65%  46°F  40°F  30.18"
Tue 08:00 PM  54.4°F  54°F  calm  1 mph  6 mph  0.00"  74%  62%  46°F  40°F  30.17"
Tue 07:00 PM  55.7°F  56°F  2 mph S  1 mph  3 mph  0.00"  71%  58%  46°F  41°F  30.16"
Tue 06:00 PM  56.4°F  58°F  calm  2 mph  9 mph  0.00"  70%  55%  46°F  41°F  30.16"
Tue 05:00 PM  56.7°F  62°F  4 mph SW  2 mph  9 mph  0.00"  69%  49%  46°F  42°F  30.14"
Tue 04:00 PM  57.9°F  66°F  4 mph SW  3 mph  11 mph  0.00"  67%  43%  46°F  42°F  30.13"

  1. Current weather data. No green row appears if the current weather data is also the high or low for the current day.
  2. High temperature for the current day.
  3. Low temperature for the current day.

The Lake Elsinore, California weather pages are a service of WeatherCurrents. Lake Elsinore is located south of Corona and north of the Temecula Valley, in southwestern Riverside County, California.
Copyright ©2020  WeatherCurrents. All rights reserved. - Submit questions and comments - Privacy Policy

This page automatically refreshes every 10 minutes.